NCAR-RAP Real-Time Weather Data

Output produced by METARs form (21 April 2018  09:48 UTC)
found at http://weather.rap.ucar.edu/surface/
 
Conditions at: KPGD observed 21 April 2018  08:53 UTC
Temperature: 20.0°C (68°F)
Dewpoint: 17.8°C (64°F) [RH = 87%]
Pressure (altimeter): 30.09 inches Hg (1019.0 mb)
[Sea-level pressure: 1019.0 mb]
Winds: from the ENE (70 degrees) at 10 MPH (9 knots; 4.7 m/s)
Visibility: 9 miles (14 km)
Ceiling: at least 12,000 feet AGL
Clouds: sky clear below 12,000 feet AGL
Present Weather: automated observation with no human augmentation;
there may or may not be significant weather present at this time
KPGD 210853Z AUTO 07009KT 9SM CLR 20/18 A3009 RMK AO2 SLP190 T02000178 58005

Conditions at: KPGD observed 21 April 2018  07:53 UTC
Temperature: 21.1°C (70°F)
Dewpoint: 18.3°C (65°F) [RH = 84%]
Pressure (altimeter): 30.10 inches Hg (1019.4 mb)
[Sea-level pressure: 1019.2 mb]
Winds: from the ENE (60 degrees) at 12 MPH (10 knots; 5.2 m/s)
Visibility: 10 or more miles (16+ km)
Ceiling: at least 12,000 feet AGL
Clouds: scattered clouds at 6500 feet AGL
Present Weather: automated observation with no human augmentation;
there may or may not be significant weather present at this time
KPGD 210753Z AUTO 06010KT 10SM SCT065 21/18 A3010 RMK AO2 SLP192 T02110183

Conditions at: KPGD observed 21 April 2018  06:53 UTC
Temperature: 20.0°C (68°F)
Dewpoint: 17.8°C (64°F) [RH = 87%]
Pressure (altimeter): 30.10 inches Hg (1019.4 mb)
[Sea-level pressure: 1019.4 mb]
Winds: from the ENE (60 degrees) at 7 MPH (6 knots; 3.1 m/s)
Visibility: 9 miles (14 km)
Ceiling: at least 12,000 feet AGL
Clouds: few clouds at 6500 feet AGL
Present Weather: automated observation with no human augmentation;
there may or may not be significant weather present at this time
KPGD 210653Z AUTO 06006KT 9SM FEW065 20/18 A3010 RMK AO2 SLP194 T02000178

Conditions at: KPGD observed 21 April 2018  05:53 UTC
Temperature: 19.4°C (67°F)
Dewpoint: 16.7°C (62°F) [RH = 84%]
Pressure (altimeter): 30.11 inches Hg (1019.7 mb)
[Sea-level pressure: 1019.6 mb]
Winds: from the ENE (60 degrees) at 10 MPH (9 knots; 4.7 m/s)
Visibility: 10 or more miles (16+ km)
Ceiling: at least 12,000 feet AGL
Clouds: sky clear below 12,000 feet AGL
Present Weather: automated observation with no human augmentation;
there may or may not be significant weather present at this time
KPGD 210553Z AUTO 06009KT 10SM CLR 19/17 A3011 RMK AO2 SLP196 T01940167 10244 20183 56007

Conditions at: KPGD observed 21 April 2018  04:53 UTC
Temperature: 18.3°C (65°F)
Dewpoint: 15.0°C (59°F) [RH = 81%]
Pressure (altimeter): 30.12 inches Hg (1020.1 mb)
[Sea-level pressure: 1019.8 mb]
Winds: from the ENE (70 degrees) at 6 MPH (5 knots; 2.6 m/s)
Visibility: 10 or more miles (16+ km)
Ceiling: at least 12,000 feet AGL
Clouds: sky clear below 12,000 feet AGL
Present Weather: automated observation with no human augmentation;
there may or may not be significant weather present at this time
KPGD 210453Z AUTO 07005KT 10SM CLR 18/15 A3012 RMK AO2 SLP198 T01830150 403110128

Conditions at: KPGD observed 21 April 2018  03:53 UTC
Temperature: 21.1°C (70°F)
Dewpoint: 16.1°C (61°F) [RH = 73%]
Pressure (altimeter): 30.12 inches Hg (1020.1 mb)
[Sea-level pressure: 1019.9 mb]
Winds: from the N (10 degrees) at 7 MPH (6 knots; 3.1 m/s)
Visibility: 10 or more miles (16+ km)
Ceiling: at least 12,000 feet AGL
Clouds: sky clear below 12,000 feet AGL
Present Weather: automated observation with no human augmentation;
there may or may not be significant weather present at this time
KPGD 210353Z AUTO 01006KT 10SM CLR 21/16 A3012 RMK AO2 SLP199 T02110161

Conditions at: KPGD observed 21 April 2018  02:53 UTC
Temperature: 21.7°C (71°F)
Dewpoint: 15.6°C (60°F) [RH = 68%]
Pressure (altimeter): 30.13 inches Hg (1020.4 mb)
[Sea-level pressure: 1020.3 mb]
Winds: from the N (350 degrees) at 5 MPH (4 knots; 2.1 m/s)
Visibility: 10 or more miles (16+ km)
Ceiling: at least 12,000 feet AGL
Clouds: sky clear below 12,000 feet AGL
Present Weather: automated observation with no human augmentation;
there may or may not be significant weather present at this time
KPGD 210253Z AUTO 35004KT 10SM CLR 22/16 A3013 RMK AO2 SLP203 T02170156 51015

Conditions at: KPGD observed 21 April 2018  01:53 UTC
Temperature: 22.2°C (72°F)
Dewpoint: 15.6°C (60°F) [RH = 66%]
Pressure (altimeter): 30.13 inches Hg (1020.4 mb)
[Sea-level pressure: 1020.2 mb]
Winds: from the NNW (340 degrees) at 7 MPH (6 knots; 3.1 m/s)
Visibility: 10 or more miles (16+ km)
Ceiling: at least 12,000 feet AGL
Clouds: sky clear below 12,000 feet AGL
Present Weather: automated observation with no human augmentation;
there may or may not be significant weather present at this time
KPGD 210153Z AUTO 34006KT 10SM CLR 22/16 A3013 RMK AO2 SLP202 T02220156

Conditions at: KPGD observed 21 April 2018  00:53 UTC
Temperature: 23.3°C (74°F)
Dewpoint: 16.1°C (61°F) [RH = 64%]
Pressure (altimeter): 30.10 inches Hg (1019.4 mb)
[Sea-level pressure: 1019.1 mb]
Winds: from the WNW (300 degrees) at 7 MPH (6 knots; 3.1 m/s)
Visibility: 10 or more miles (16+ km)
Ceiling: at least 12,000 feet AGL
Clouds: sky clear below 12,000 feet AGL
Present Weather: automated observation with no human augmentation;
there may or may not be significant weather present at this time
KPGD 210053Z AUTO 30006KT 10SM CLR 23/16 A3010 RMK AO2 SLP191 T02330161

Conditions at: KPGD observed 20 April 2018  23:53 UTC
Temperature: 24.4°C (76°F)
Dewpoint: 16.1°C (61°F) [RH = 60%]
Pressure (altimeter): 30.09 inches Hg (1019.0 mb)
[Sea-level pressure: 1018.8 mb]
Winds: from the WNW (290 degrees) at 9 MPH (8 knots; 4.2 m/s)
Visibility: 10 or more miles (16+ km)
Ceiling: at least 12,000 feet AGL
Clouds: sky clear below 12,000 feet AGL
Present Weather: no significant weather observed at this time
KPGD 202353Z 29008KT 10SM CLR 24/16 A3009 RMK AO2 SLP188 T02440161 10311 20244 53004

Conditions at: KPGD observed 20 April 2018  22:53 UTC
Temperature: 27.2°C (81°F)
Dewpoint: 16.7°C (62°F) [RH = 53%]
Pressure (altimeter): 30.09 inches Hg (1019.0 mb)
[Sea-level pressure: 1018.8 mb]
Winds: from the W (280 degrees) at 13 MPH (11 knots; 5.7 m/s)
Visibility: 10 or more miles (16+ km)
Ceiling: at least 12,000 feet AGL
Clouds: sky clear below 12,000 feet AGL
Present Weather: no significant weather observed at this time
KPGD 202253Z 28011KT 10SM CLR 27/17 A3009 RMK AO2 SLP188 T02720167

Conditions at: KPGD observed 20 April 2018  21:53 UTC
Temperature: 28.3°C (83°F)
Dewpoint: 17.2°C (63°F) [RH = 51%]
Pressure (altimeter): 30.07 inches Hg (1018.4 mb)
[Sea-level pressure: 1018.3 mb]
Winds: from the W (270 degrees) at 13 MPH (11 knots; 5.7 m/s)
Visibility: 10 or more miles (16+ km)
Ceiling: at least 12,000 feet AGL
Clouds: sky clear below 12,000 feet AGL
Present Weather: no significant weather observed at this time
KPGD 202153Z 27011KT 10SM CLR 28/17 A3007 RMK AO2 SLP183 T02830172

Conditions at: KPGD observed 20 April 2018  20:53 UTC
Temperature: 28.9°C (84°F)
Dewpoint: 16.7°C (62°F) [RH = 48%]
Pressure (altimeter): 30.07 inches Hg (1018.4 mb)
[Sea-level pressure: 1018.4 mb]
Winds: from the W (270 degrees) at 12 MPH (10 knots; 5.2 m/s)
Visibility: 10 or more miles (16+ km)
Ceiling: at least 12,000 feet AGL
Clouds: sky clear below 12,000 feet AGL
Present Weather: no significant weather observed at this time
KPGD 202053Z 27010KT 10SM CLR 29/17 A3007 RMK AO2 SLP184 T02890167 58016

Conditions at: KPGD observed 20 April 2018  19:53 UTC
Temperature: 30.6°C (87°F)
Dewpoint: 14.4°C (58°F) [RH = 37%]
Pressure (altimeter): 30.09 inches Hg (1019.0 mb)
[Sea-level pressure: 1019.0 mb]
Winds: from the W (280 degrees) at 10 MPH (9 knots; 4.7 m/s)
Visibility: 10 or more miles (16+ km)
Ceiling: at least 12,000 feet AGL
Clouds: sky clear below 12,000 feet AGL
Present Weather: no significant weather observed at this time
KPGD 201953Z 28009KT 10SM CLR 31/14 A3009 RMK AO2 SLP190 T03060144

Conditions at: KPGD observed 20 April 2018  18:53 UTC
Temperature: 30.0°C (86°F)
Dewpoint: 13.9°C (57°F) [RH = 37%]
Pressure (altimeter): 30.11 inches Hg (1019.7 mb)
[Sea-level pressure: 1019.6 mb]
Winds: from the WNW (290 degrees) at 10 MPH (9 knots; 4.7 m/s)
Visibility: 10 or more miles (16+ km)
Ceiling: at least 12,000 feet AGL
Clouds: sky clear below 12,000 feet AGL
Present Weather: no significant weather observed at this time
KPGD 201853Z 29009KT 10SM CLR 30/14 A3011 RMK AO2 SLP196 T03000139

Conditions at: KPGD observed 20 April 2018  17:53 UTC
Temperature: 29.4°C (85°F)
Dewpoint: 14.4°C (58°F) [RH = 40%]
Pressure (altimeter): 30.12 inches Hg (1020.1 mb)
[Sea-level pressure: 1020.0 mb]
Winds: variable direction winds at 7 MPH (6 knots; 3.1 m/s)
Visibility: 10 or more miles (16+ km)
Ceiling: at least 12,000 feet AGL
Clouds: sky clear below 12,000 feet AGL
Present Weather: no significant weather observed at this time
KPGD 201753Z VRB06KT 10SM CLR 29/14 A3012 RMK AO2 SLP200 T02940144 10294 20161 58013

Conditions at: KPGD observed 20 April 2018  16:53 UTC
Temperature: 28.3°C (83°F)
Dewpoint: 15.0°C (59°F) [RH = 44%]
Pressure (altimeter): 30.13 inches Hg (1020.4 mb)
[Sea-level pressure: 1020.4 mb]
Winds: from the W (280 degrees) at 7 MPH (6 knots; 3.1 m/s)
Visibility: 10 or more miles (16+ km)
Ceiling: at least 12,000 feet AGL
Clouds: few clouds at 4200 feet AGL
Present Weather: no significant weather observed at this time
KPGD 201653Z 28006KT 10SM FEW042 28/15 A3013 RMK AO2 SLP204 T02830150

Conditions at: KPGD observed 20 April 2018  15:53 UTC
Temperature: 27.2°C (81°F)
Dewpoint: 15.0°C (59°F) [RH = 47%]
Pressure (altimeter): 30.15 inches Hg (1021.1 mb)
[Sea-level pressure: 1020.9 mb]
Winds: from the NW (310 degrees) at 6 MPH (5 knots; 2.6 m/s)
Visibility: 10 or more miles (16+ km)
Ceiling: at least 12,000 feet AGL
Clouds: sky clear below 12,000 feet AGL
Present Weather: no significant weather observed at this time
KPGD 201553Z 31005KT 10SM CLR 27/15 A3015 RMK AO2 SLP209 T02720150

Conditions at: KPGD observed 20 April 2018  14:53 UTC
Temperature: 25.6°C (78°F)
Dewpoint: 15.6°C (60°F) [RH = 54%]
Pressure (altimeter): 30.16 inches Hg (1021.4 mb)
[Sea-level pressure: 1021.2 mb]
Winds: calm
Visibility: 10 or more miles (16+ km)
Ceiling: at least 12,000 feet AGL
Clouds: few clouds at 2500 feet AGL
Present Weather: no significant weather observed at this time
KPGD 201453Z 00000KT 10SM FEW025 26/16 A3016 RMK AO2 SLP212 T02560156 51009

Conditions at: KPGD observed 20 April 2018  13:53 UTC
Temperature: 24.4°C (76°F)
Dewpoint: 16.7°C (62°F) [RH = 62%]
Pressure (altimeter): 30.16 inches Hg (1021.4 mb)
[Sea-level pressure: 1021.2 mb]
Winds: calm
Visibility: 10 or more miles (16+ km)
Ceiling: at least 12,000 feet AGL
Clouds: few clouds at 4500 feet AGL
Present Weather: no significant weather observed at this time
KPGD 201353Z 00000KT 10SM FEW045 24/17 A3016 RMK AO2 SLP212 T02440167

Conditions at: KPGD observed 20 April 2018  12:53 UTC
Temperature: 21.1°C (70°F)
Dewpoint: 18.3°C (65°F) [RH = 84%]
Pressure (altimeter): 30.14 inches Hg (1020.7 mb)
[Sea-level pressure: 1020.8 mb]
Winds: from the N (360 degrees) at 5 MPH (4 knots; 2.1 m/s)
Visibility: 10 or more miles (16+ km)
Ceiling: at least 12,000 feet AGL
Clouds: few clouds at 4600 feet AGL
Present Weather: no significant weather observed at this time
KPGD 201253Z 36004KT 10SM FEW046 21/18 A3014 RMK AO2 SLP208 T02110183

Conditions at: KPGD observed 20 April 2018  12:00 UTC
Temperature: 16.7°C (62°F)
Dewpoint: 15.0°C (59°F) [RH = 90%]
Pressure (altimeter): 30.13 inches Hg (1020.4 mb)
Winds: calm
Visibility: 8 miles (13 km)
Ceiling: at least 12,000 feet AGL
Clouds: few clouds at 200 feet AGL
scattered clouds at 4500 feet AGL
Present Weather: no significant weather observed at this time
KPGD 201200Z 00000KT 8SM FEW002 SCT045 17/15 A3013 RMK AO2 T01670150

Conditions at: KPGD observed 20 April 2018  11:53 UTC
Temperature: 15.6°C (60°F)
Dewpoint: 14.4°C (58°F) [RH = 93%]
Pressure (altimeter): 30.13 inches Hg (1020.4 mb)
[Sea-level pressure: 1020.3 mb]
Winds: calm
Visibility: 6 miles (10 km)
Ceiling: at least 12,000 feet AGL
Clouds: sky clear below 12,000 feet AGL
Present Weather: BR  (mist)
KPGD 201153Z 00000KT 6SM BR CLR 16/14 A3013 RMK AO2 SLP203 T01560144 10189 20128 53010

Conditions at: KPGD observed 20 April 2018  10:53 UTC
Temperature: 13.3°C (56°F)
Dewpoint: 11.7°C (53°F) [RH = 90%]
Pressure (altimeter): 30.12 inches Hg (1020.1 mb)
[Sea-level pressure: 1019.8 mb]
Winds: calm
Visibility: 0.75 miles (1.21 km)
Ceiling: at least 12,000 feet AGL
Clouds: sky clear below 12,000 feet AGL
Present Weather: BR  (mist)
KPGD 201053Z 00000KT 3/4SM BR CLR 13/12 A3012 RMK AO2 SLP198 T01330117

Conditions at: KPGD observed 20 April 2018  10:51 UTC
Temperature: 13.0°C (55°F)
Dewpoint: 12.0°C (54°F) [RH = 94%]
Pressure (altimeter): 30.12 inches Hg (1020.1 mb)
Winds: calm
Visibility: 0.75 miles (1.21 km)
Ceiling: at least 12,000 feet AGL
Clouds: sky clear below 12,000 feet AGL
Present Weather: BR  (mist)
KPGD 201051Z 00000KT 3/4SM BR CLR 13/12 A3012 RMK AO2

Conditions at: KPGD observed 20 April 2018  10:12 UTC
Temperature: 13.3°C (56°F)
Dewpoint: 12.2°C (54°F) [RH = 93%]
Pressure (altimeter): 30.11 inches Hg (1019.7 mb)
Winds: from the ESE (120 degrees) at 3 MPH (3 knots; 1.6 m/s)
Visibility: 6 miles (10 km)
Ceiling: at least 12,000 feet AGL
Clouds: sky clear below 12,000 feet AGL
Present Weather: BR  (mist)
KPGD 201012Z 12003KT 6SM BR CLR 13/12 A3011 RMK AO2 T01330122

Conditions at: KPGD observed 20 April 2018  09:53 UTC
Temperature: 14.4°C (58°F)
Dewpoint: 12.8°C (55°F) [RH = 90%]
Pressure (altimeter): 30.10 inches Hg (1019.4 mb)
[Sea-level pressure: 1019.3 mb]
Winds: from the ESE (120 degrees) at 6 MPH (5 knots; 2.6 m/s)
Visibility: 0.75 miles (1.21 km)
Ceiling: indefinite ceiling with vertical visibility of 300 feet AGL
Clouds: obscured sky
Present Weather: BR  (mist)
KPGD 200953Z 12005KT 3/4SM BR VV003 14/13 A3010 RMK AO2 SLP193 T01440128